Aeroporto :
LOGIN :

Iscrizione | Disclaimer

   EN    FR    IT 

 










Sommario :    VFR   VFR Marginale   IFR   IFR Intensivo   IFR Molto Intensivo
Visibilità : 
Base nubi : 
>= 8 km
>= 3000ft
5 / 8 km
1000 / 3000 ft
1500m / 5 km
500 / 1000 ft
800 / 1500m
200 / 500 ft
< 800m
< 200 ft
Simboli :   Temporali  Nebbia  Neve Forte  Precipitazioni Forti  Vento > 20 kt
SIGMETs :   Varie  Temporali  Ghiacco  Turbolenza  Onda orograficha  Ceneri Vulcaniche






- Altitudine del aeroporto : 142 ft
- Codice IATA : ALC


LEAL - Alicante

ULTIMO METAR :
  • 041830Z 07006KT 9999 FEW018 SCT026 15/11 Q1020 NOSIG

METARs OBSOLETI :
  • 041800Z 08007KT 9999 SCT021 15/11 Q1019 NOSIG
  • 041730Z 08007KT 9999 BKN021 15/11 Q1019 NOSIG
  • 041700Z 08007KT 050V120 9999 SCT021 16/10 Q1019 NOSIG
  • 041630Z 10009KT 070V140 9999 BKN021 16/11 Q1019 NOSIG
  • 041600Z 10010KT 070V140 9999 BKN021 16/11 Q1019 NOSIG
  • 041530Z 08011KT 050V110 9999 SCT018 16/12 Q1019 NOSIG

TAF TAF LEAL
Valido dal 04 a 18 ore il 05 a 18 ore UTC


041700Z 0418/0518 09010KT 9999 SCT020 TX18/0512Z TN11/0506Z
BECMG 0418/0420 01003KT
BECMG 0508/0510 09010KT



MetMap, La meteo Aeronautica in un colpo d'occhio ! - Copyright ORBIFLY Dicembre 2007 - Disclaimer

ORBIFLY MET'MAP TEAM :

Programmazione e sviluppo : Alexandra Zaïnal
Concezione : Baudouin d'Aumeries
Aiuto per la programmazione : Marc-Olivier Méhu
Supporto tecnico e logistico : Manuel Goepfert
Aiuto per la traduzione : Arnaldo La Scala

Contatto : metmap@orbifly.com




FONTI E CREDITI :

   NOAA